sensor_id;sensor_type;location;lat;lon;timestamp;P1;durP1;ratioP1;P2;durP2;ratioP2
15820;SDS011;8011;51.650;7.240;2022-12-18T00:01:02;39.57;;;19.27;;
15820;SDS011;8011;51.650;7.240;2022-12-18T00:03:34;35.30;;;19.67;;
15820;SDS011;8011;51.650;7.240;2022-12-18T00:06:00;41.83;;;21.23;;
15820;SDS011;8011;51.650;7.240;2022-12-18T00:08:26;40.90;;;22.23;;
15820;SDS011;8011;51.650;7.240;2022-12-18T00:10:53;38.57;;;21.87;;
15820;SDS011;8011;51.650;7.240;2022-12-18T00:13:18;49.40;;;22.53;;
15820;SDS011;8011;51.650;7.240;2022-12-18T00:15:44;49.07;;;23.07;;
15820;SDS011;8011;51.650;7.240;2022-12-18T00:18:10;42.80;;;22.13;;
15820;SDS011;8011;51.650;7.240;2022-12-18T00:20:36;41.40;;;21.27;;
15820;SDS011;8011;51.650;7.240;2022-12-18T00:23:04;41.37;;;23.40;;
15820;SDS011;8011;51.650;7.240;2022-12-18T00:25:34;45.37;;;22.20;;
15820;SDS011;8011;51.650;7.240;2022-12-18T00:28:02;48.07;;;23.17;;
15820;SDS011;8011;51.650;7.240;2022-12-18T00:30:28;42.67;;;22.43;;
15820;SDS011;8011;51.650;7.240;2022-12-18T00:32:54;34.17;;;19.50;;
15820;SDS011;8011;51.650;7.240;2022-12-18T00:35:20;32.33;;;19.10;;
15820;SDS011;8011;51.650;7.240;2022-12-18T00:37:48;33.03;;;19.03;;
15820;SDS011;8011;51.650;7.240;2022-12-18T00:40:17;33.33;;;18.80;;
15820;SDS011;8011;51.650;7.240;2022-12-18T00:42:43;34.40;;;19.40;;
15820;SDS011;8011;51.650;7.240;2022-12-18T00:45:21;30.53;;;18.23;;
15820;SDS011;8011;51.650;7.240;2022-12-18T00:47:49;35.03;;;19.87;;
15820;SDS011;8011;51.650;7.240;2022-12-18T00:50:14;44.17;;;21.27;;
15820;SDS011;8011;51.650;7.240;2022-12-18T00:52:40;38.70;;;20.63;;
15820;SDS011;8011;51.650;7.240;2022-12-18T00:55:06;42.23;;;20.83;;
15820;SDS011;8011;51.650;7.240;2022-12-18T00:57:33;35.73;;;20.53;;
15820;SDS011;8011;51.650;7.240;2022-12-18T00:59:58;39.50;;;21.37;;
15820;SDS011;8011;51.650;7.240;2022-12-18T04:01:05;25.93;;;13.20;;
15820;SDS011;8011;51.650;7.240;2022-12-18T04:03:34;25.50;;;12.93;;
15820;SDS011;8011;51.650;7.240;2022-12-18T04:06:01;25.83;;;14.07;;
15820;SDS011;8011;51.650;7.240;2022-12-18T04:08:28;26.30;;;14.70;;
15820;SDS011;8011;51.650;7.240;2022-12-18T04:10:55;24.20;;;15.07;;
15820;SDS011;8011;51.650;7.240;2022-12-18T04:13:22;25.57;;;13.47;;
15820;SDS011;8011;51.650;7.240;2022-12-18T04:15:59;22.97;;;12.93;;
15820;SDS011;8011;51.650;7.240;2022-12-18T04:18:27;23.70;;;13.73;;
15820;SDS011;8011;51.650;7.240;2022-12-18T04:20:53;24.13;;;14.17;;
15820;SDS011;8011;51.650;7.240;2022-12-18T04:23:19;22.07;;;12.80;;
15820;SDS011;8011;51.650;7.240;2022-12-18T04:25:45;23.87;;;12.90;;
15820;SDS011;8011;51.650;7.240;2022-12-18T04:28:13;23.43;;;14.30;;
15820;SDS011;8011;51.650;7.240;2022-12-18T04:30:38;24.20;;;13.60;;
15820;SDS011;8011;51.650;7.240;2022-12-18T04:33:10;20.97;;;13.50;;
15820;SDS011;8011;51.650;7.240;2022-12-18T04:35:38;22.70;;;13.40;;
15820;SDS011;8011;51.650;7.240;2022-12-18T04:38:05;24.87;;;13.47;;
15820;SDS011;8011;51.650;7.240;2022-12-18T04:40:32;25.83;;;13.37;;
15820;SDS011;8011;51.650;7.240;2022-12-18T04:43:00;19.87;;;12.60;;
15820;SDS011;8011;51.650;7.240;2022-12-18T04:45:26;23.30;;;13.07;;
15820;SDS011;8011;51.650;7.240;2022-12-18T04:47:52;24.07;;;13.57;;
15820;SDS011;8011;51.650;7.240;2022-12-18T04:50:18;27.97;;;13.43;;
15820;SDS011;8011;51.650;7.240;2022-12-18T04:52:43;26.20;;;14.60;;
15820;SDS011;8011;51.650;7.240;2022-12-18T04:55:09;25.20;;;14.33;;
15820;SDS011;8011;51.650;7.240;2022-12-18T04:57:35;26.93;;;14.30;;
15820;SDS011;8011;51.650;7.240;2022-12-18T05:00:03;25.17;;;14.60;;
15820;SDS011;8011;51.650;7.240;2022-12-18T05:02:33;29.53;;;16.10;;
15820;SDS011;8011;51.650;7.240;2022-12-18T05:04:58;29.00;;;15.53;;
15820;SDS011;8011;51.650;7.240;2022-12-18T05:07:26;27.00;;;16.17;;
15820;SDS011;8011;51.650;7.240;2022-12-18T05:09:52;26.33;;;14.90;;
15820;SDS011;8011;51.650;7.240;2022-12-18T05:12:17;29.33;;;14.30;;
15820;SDS011;8011;51.650;7.240;2022-12-18T05:14:43;24.27;;;14.17;;
15820;SDS011;8011;51.650;7.240;2022-12-18T05:19:37;27.93;;;14.73;;
15820;SDS011;8011;51.650;7.240;2022-12-18T05:22:03;27.93;;;15.37;;
15820;SDS011;8011;51.650;7.240;2022-12-18T05:24:29;25.53;;;14.30;;
15820;SDS011;8011;51.650;7.240;2022-12-18T05:26:55;26.07;;;14.47;;
15820;SDS011;8011;51.650;7.240;2022-12-18T05:29:20;24.77;;;13.93;;
15820;SDS011;8011;51.650;7.240;2022-12-18T05:31:48;22.77;;;13.83;;
15820;SDS011;8011;51.650;7.240;2022-12-18T05:34:14;23.00;;;13.27;;
15820;SDS011;8011;51.650;7.240;2022-12-18T05:36:40;22.40;;;12.47;;
15820;SDS011;8011;51.650;7.240;2022-12-18T05:39:06;23.90;;;13.30;;
15820;SDS011;8011;51.650;7.240;2022-12-18T05:41:31;21.40;;;12.33;;
15820;SDS011;8011;51.650;7.240;2022-12-18T05:43:58;22.43;;;12.73;;
15820;SDS011;8011;51.650;7.240;2022-12-18T05:46:24;22.73;;;12.33;;
15820;SDS011;8011;51.650;7.240;2022-12-18T05:48:50;27.47;;;14.17;;
15820;SDS011;8011;51.650;7.240;2022-12-18T05:51:16;22.97;;;13.37;;
15820;SDS011;8011;51.650;7.240;2022-12-18T05:53:46;22.93;;;13.13;;
15820;SDS011;8011;51.650;7.240;2022-12-18T05:56:17;25.60;;;13.60;;
15820;SDS011;8011;51.650;7.240;2022-12-18T05:58:45;21.20;;;12.57;;
15820;SDS011;8011;51.650;7.240;2022-12-18T06:01:15;20.53;;;11.87;;
15820;SDS011;8011;51.650;7.240;2022-12-18T06:03:43;19.50;;;10.77;;
15820;SDS011;8011;51.650;7.240;2022-12-18T06:06:14;18.63;;;11.83;;
15820;SDS011;8011;51.650;7.240;2022-12-18T06:08:48;20.23;;;10.60;;
15820;SDS011;8011;51.650;7.240;2022-12-18T06:11:16;19.87;;;11.97;;
15820;SDS011;8011;51.650;7.240;2022-12-18T06:13:44;20.50;;;10.57;;
15820;SDS011;8011;51.650;7.240;2022-12-18T06:16:10;22.57;;;12.57;;
15820;SDS011;8011;51.650;7.240;2022-12-18T06:18:38;19.07;;;11.73;;
15820;SDS011;8011;51.650;7.240;2022-12-18T06:21:04;22.30;;;12.13;;
15820;SDS011;8011;51.650;7.240;2022-12-18T06:23:30;19.03;;;11.10;;
15820;SDS011;8011;51.650;7.240;2022-12-18T06:25:58;19.07;;;11.30;;
15820;SDS011;8011;51.650;7.240;2022-12-18T06:28:28;16.47;;;10.57;;
15820;SDS011;8011;51.650;7.240;2022-12-18T06:30:53;17.30;;;10.97;;
15820;SDS011;8011;51.650;7.240;2022-12-18T06:33:25;17.97;;;11.33;;
15820;SDS011;8011;51.650;7.240;2022-12-18T06:35:53;19.43;;;12.27;;
15820;SDS011;8011;51.650;7.240;2022-12-18T06:38:19;20.97;;;13.57;;
15820;SDS011;8011;51.650;7.240;2022-12-18T06:40:44;21.23;;;12.90;;
15820;SDS011;8011;51.650;7.240;2022-12-18T06:43:10;16.93;;;11.13;;
15820;SDS011;8011;51.650;7.240;2022-12-18T06:45:36;18.13;;;12.43;;
15820;SDS011;8011;51.650;7.240;2022-12-18T06:48:01;17.10;;;11.07;;
15820;SDS011;8011;51.650;7.240;2022-12-18T06:50:30;16.47;;;10.37;;
15820;SDS011;8011;51.650;7.240;2022-12-18T06:52:56;17.77;;;10.33;;
15820;SDS011;8011;51.650;7.240;2022-12-18T06:55:22;19.07;;;10.67;;
15820;SDS011;8011;51.650;7.240;2022-12-18T06:57:47;15.63;;;9.90;;
15820;SDS011;8011;51.650;7.240;2022-12-18T07:00:14;16.40;;;9.87;;
15820;SDS011;8011;51.650;7.240;2022-12-18T07:02:42;17.00;;;9.03;;
15820;SDS011;8011;51.650;7.240;2022-12-18T07:05:07;16.33;;;9.97;;
15820;SDS011;8011;51.650;7.240;2022-12-18T07:07:34;18.90;;;9.13;;
15820;SDS011;8011;51.650;7.240;2022-12-18T07:10:00;14.07;;;9.30;;
15820;SDS011;8011;51.650;7.240;2022-12-18T07:12:28;15.93;;;9.97;;
15820;SDS011;8011;51.650;7.240;2022-12-18T07:14:54;16.53;;;10.13;;
15820;SDS011;8011;51.650;7.240;2022-12-18T07:17:26;14.47;;;9.50;;
15820;SDS011;8011;51.650;7.240;2022-12-18T07:19:51;15.33;;;9.47;;
15820;SDS011;8011;51.650;7.240;2022-12-18T07:22:17;19.23;;;9.87;;
15820;SDS011;8011;51.650;7.240;2022-12-18T07:24:43;17.97;;;10.90;;
15820;SDS011;8011;51.650;7.240;2022-12-18T07:27:08;16.10;;;9.30;;
15820;SDS011;8011;51.650;7.240;2022-12-18T07:29:34;15.10;;;9.70;;
15820;SDS011;8011;51.650;7.240;2022-12-18T07:32:00;14.57;;;9.10;;
15820;SDS011;8011;51.650;7.240;2022-12-18T07:34:25;13.13;;;8.87;;
15820;SDS011;8011;51.650;7.240;2022-12-18T07:36:51;15.43;;;9.13;;
15820;SDS011;8011;51.650;7.240;2022-12-18T07:39:19;13.63;;;9.17;;
15820;SDS011;8011;51.650;7.240;2022-12-18T07:41:45;18.10;;;9.77;;
15820;SDS011;8011;51.650;7.240;2022-12-18T07:44:30;15.57;;;9.30;;
15820;SDS011;8011;51.650;7.240;2022-12-18T07:46:56;15.73;;;9.67;;
15820;SDS011;8011;51.650;7.240;2022-12-18T07:49:24;15.33;;;8.93;;
15820;SDS011;8011;51.650;7.240;2022-12-18T07:51:50;18.17;;;9.47;;
15820;SDS011;8011;51.650;7.240;2022-12-18T07:54:15;13.97;;;9.80;;
15820;SDS011;8011;51.650;7.240;2022-12-18T07:56:41;17.80;;;9.50;;
15820;SDS011;8011;51.650;7.240;2022-12-18T07:59:07;14.23;;;9.50;;
15820;SDS011;8011;51.650;7.240;2022-12-18T08:01:33;18.27;;;9.50;;
15820;SDS011;8011;51.650;7.240;2022-12-18T08:03:59;16.13;;;10.00;;
15820;SDS011;8011;51.650;7.240;2022-12-18T08:06:25;16.30;;;9.83;;
15820;SDS011;8011;51.650;7.240;2022-12-18T08:08:51;18.47;;;9.60;;
15820;SDS011;8011;51.650;7.240;2022-12-18T08:11:22;16.60;;;10.33;;
15820;SDS011;8011;51.650;7.240;2022-12-18T08:13:49;17.07;;;9.97;;
15820;SDS011;8011;51.650;7.240;2022-12-18T08:16:15;17.93;;;9.93;;
15820;SDS011;8011;51.650;7.240;2022-12-18T08:18:40;18.63;;;10.73;;
15820;SDS011;8011;51.650;7.240;2022-12-18T08:21:10;15.13;;;9.20;;
15820;SDS011;8011;51.650;7.240;2022-12-18T08:23:37;11.30;;;8.20;;
15820;SDS011;8011;51.650;7.240;2022-12-18T08:26:07;16.53;;;10.23;;
15820;SDS011;8011;51.650;7.240;2022-12-18T08:28:33;15.90;;;9.77;;
15820;SDS011;8011;51.650;7.240;2022-12-18T08:30:59;16.87;;;9.30;;
15820;SDS011;8011;51.650;7.240;2022-12-18T08:33:25;16.83;;;10.37;;
15820;SDS011;8011;51.650;7.240;2022-12-18T08:35:51;15.50;;;10.17;;
15820;SDS011;8011;51.650;7.240;2022-12-18T08:38:17;13.83;;;8.60;;
15820;SDS011;8011;51.650;7.240;2022-12-18T08:40:43;12.20;;;9.57;;
15820;SDS011;8011;51.650;7.240;2022-12-18T08:43:09;18.63;;;9.90;;
15820;SDS011;8011;51.650;7.240;2022-12-18T08:45:54;15.00;;;9.83;;
15820;SDS011;8011;51.650;7.240;2022-12-18T08:48:20;14.00;;;9.63;;
15820;SDS011;8011;51.650;7.240;2022-12-18T08:50:56;17.80;;;9.03;;
15820;SDS011;8011;51.650;7.240;2022-12-18T08:53:22;13.37;;;8.53;;
15820;SDS011;8011;51.650;7.240;2022-12-18T08:55:50;11.97;;;8.40;;
15820;SDS011;8011;51.650;7.240;2022-12-18T08:58:17;13.90;;;8.30;;
15820;SDS011;8011;51.650;7.240;2022-12-18T09:00:42;13.70;;;8.13;;
15820;SDS011;8011;51.650;7.240;2022-12-18T09:03:12;14.67;;;9.10;;
15820;SDS011;8011;51.650;7.240;2022-12-18T09:05:42;15.87;;;9.67;;
15820;SDS011;8011;51.650;7.240;2022-12-18T09:08:08;13.13;;;8.70;;
15820;SDS011;8011;51.650;7.240;2022-12-18T09:10:34;16.07;;;10.67;;
15820;SDS011;8011;51.650;7.240;2022-12-18T09:13:06;17.67;;;11.23;;
15820;SDS011;8011;51.650;7.240;2022-12-18T09:15:32;14.07;;;9.60;;
15820;SDS011;8011;51.650;7.240;2022-12-18T09:17:57;15.93;;;10.17;;
15820;SDS011;8011;51.650;7.240;2022-12-18T09:20:23;14.90;;;8.97;;
15820;SDS011;8011;51.650;7.240;2022-12-18T09:22:49;13.83;;;8.53;;
15820;SDS011;8011;51.650;7.240;2022-12-18T09:25:18;14.33;;;8.70;;
15820;SDS011;8011;51.650;7.240;2022-12-18T09:27:43;13.40;;;8.63;;
15820;SDS011;8011;51.650;7.240;2022-12-18T09:30:12;12.83;;;7.70;;
15820;SDS011;8011;51.650;7.240;2022-12-18T09:32:38;13.20;;;8.90;;
15820;SDS011;8011;51.650;7.240;2022-12-18T09:35:04;12.83;;;8.60;;
15820;SDS011;8011;51.650;7.240;2022-12-18T09:37:30;13.70;;;8.70;;
15820;SDS011;8011;51.650;7.240;2022-12-18T09:39:56;13.07;;;8.17;;
15820;SDS011;8011;51.650;7.240;2022-12-18T09:42:21;11.30;;;7.80;;
15820;SDS011;8011;51.650;7.240;2022-12-18T09:44:52;11.97;;;8.13;;
15820;SDS011;8011;51.650;7.240;2022-12-18T09:47:27;13.90;;;8.23;;
15820;SDS011;8011;51.650;7.240;2022-12-18T09:49:58;14.10;;;8.07;;
15820;SDS011;8011;51.650;7.240;2022-12-18T09:52:35;11.47;;;8.13;;
15820;SDS011;8011;51.650;7.240;2022-12-18T09:58:17;15.17;;;7.77;;
15820;SDS011;8011;51.650;7.240;2022-12-18T10:00:52;11.00;;;7.43;;
15820;SDS011;8011;51.650;7.240;2022-12-18T10:03:18;13.67;;;8.60;;
15820;SDS011;8011;51.650;7.240;2022-12-18T10:15:00;10.80;;;7.57;;
15820;SDS011;8011;51.650;7.240;2022-12-18T10:20:13;12.80;;;8.00;;
15820;SDS011;8011;51.650;7.240;2022-12-18T10:28:37;12.57;;;8.50;;
15820;SDS011;8011;51.650;7.240;2022-12-18T10:31:18;11.13;;;7.43;;
15820;SDS011;8011;51.650;7.240;2022-12-18T10:33:47;11.23;;;7.83;;
15820;SDS011;8011;51.650;7.240;2022-12-18T10:36:13;11.90;;;7.90;;
15820;SDS011;8011;51.650;7.240;2022-12-18T10:38:39;14.33;;;9.63;;
15820;SDS011;8011;51.650;7.240;2022-12-18T10:43:42;13.43;;;8.77;;
15820;SDS011;8011;51.650;7.240;2022-12-18T10:51:08;13.00;;;7.90;;
15820;SDS011;8011;51.650;7.240;2022-12-18T10:53:34;13.87;;;8.83;;
15820;SDS011;8011;51.650;7.240;2022-12-18T10:56:02;14.10;;;8.13;;
15820;SDS011;8011;51.650;7.240;2022-12-18T10:58:34;12.17;;;8.77;;
15820;SDS011;8011;51.650;7.240;2022-12-18T11:03:34;15.60;;;9.43;;
15820;SDS011;8011;51.650;7.240;2022-12-18T11:06:12;15.57;;;10.53;;
15820;SDS011;8011;51.650;7.240;2022-12-18T11:08:57;11.67;;;8.77;;
15820;SDS011;8011;51.650;7.240;2022-12-18T11:11:24;11.33;;;8.33;;
15820;SDS011;8011;51.650;7.240;2022-12-18T11:13:54;15.13;;;9.40;;
15820;SDS011;8011;51.650;7.240;2022-12-18T11:16:46;15.13;;;10.00;;
15820;SDS011;8011;51.650;7.240;2022-12-18T11:19:20;13.80;;;10.17;;
15820;SDS011;8011;51.650;7.240;2022-12-18T11:21:58;11.53;;;8.73;;
15820;SDS011;8011;51.650;7.240;2022-12-18T11:24:29;13.80;;;8.77;;
15820;SDS011;8011;51.650;7.240;2022-12-18T11:27:16;13.93;;;8.00;;
15820;SDS011;8011;51.650;7.240;2022-12-18T11:29:43;11.07;;;8.40;;
15820;SDS011;8011;51.650;7.240;2022-12-18T11:32:21;11.50;;;8.20;;
15820;SDS011;8011;51.650;7.240;2022-12-18T11:37:29;13.63;;;8.67;;
15820;SDS011;8011;51.650;7.240;2022-12-18T11:39:57;12.47;;;8.53;;
15820;SDS011;8011;51.650;7.240;2022-12-18T11:42:48;11.17;;;8.00;;
15820;SDS011;8011;51.650;7.240;2022-12-18T11:45:28;11.87;;;8.00;;
15820;SDS011;8011;51.650;7.240;2022-12-18T11:51:00;14.67;;;8.83;;
15820;SDS011;8011;51.650;7.240;2022-12-18T11:53:29;16.03;;;10.00;;
15820;SDS011;8011;51.650;7.240;2022-12-18T11:56:27;14.57;;;9.20;;
15820;SDS011;8011;51.650;7.240;2022-12-18T12:04:09;11.97;;;8.53;;
15820;SDS011;8011;51.650;7.240;2022-12-18T12:18:09;9.87;;;6.70;;
15820;SDS011;8011;51.650;7.240;2022-12-18T12:20:44;10.87;;;7.10;;
15820;SDS011;8011;51.650;7.240;2022-12-18T12:26:30;13.23;;;7.93;;
15820;SDS011;8011;51.650;7.240;2022-12-18T12:32:30;13.40;;;8.03;;
15820;SDS011;8011;51.650;7.240;2022-12-18T12:34:46;17.27;;;7.77;;
15820;SDS011;8011;51.650;7.240;2022-12-18T12:40:23;15.57;;;8.53;;
15820;SDS011;8011;51.650;7.240;2022-12-18T12:42:58;14.33;;;8.40;;
15820;SDS011;8011;51.650;7.240;2022-12-18T12:45:52;11.10;;;7.70;;
15820;SDS011;8011;51.650;7.240;2022-12-18T12:51:22;13.27;;;8.63;;
15820;SDS011;8011;51.650;7.240;2022-12-18T12:53:53;9.67;;;7.10;;
15820;SDS011;8011;51.650;7.240;2022-12-18T12:56:21;11.33;;;8.17;;
15820;SDS011;8011;51.650;7.240;2022-12-18T13:04:52;12.53;;;8.57;;
15820;SDS011;8011;51.650;7.240;2022-12-18T13:07:26;12.87;;;8.63;;
15820;SDS011;8011;51.650;7.240;2022-12-18T13:13:30;12.67;;;8.20;;
15820;SDS011;8011;51.650;7.240;2022-12-18T13:18:22;12.73;;;8.13;;
15820;SDS011;8011;51.650;7.240;2022-12-18T13:20:51;14.07;;;8.30;;
15820;SDS011;8011;51.650;7.240;2022-12-18T13:23:45;12.87;;;8.63;;
15820;SDS011;8011;51.650;7.240;2022-12-18T13:31:12;11.93;;;8.60;;
15820;SDS011;8011;51.650;7.240;2022-12-18T13:33:42;13.87;;;9.07;;
15820;SDS011;8011;51.650;7.240;2022-12-18T13:38:47;12.83;;;8.20;;
15820;SDS011;8011;51.650;7.240;2022-12-18T13:44:59;13.07;;;9.03;;
15820;SDS011;8011;51.650;7.240;2022-12-18T13:47:32;15.60;;;10.63;;
15820;SDS011;8011;51.650;7.240;2022-12-18T13:50:02;16.30;;;10.63;;
15820;SDS011;8011;51.650;7.240;2022-12-18T13:52:37;16.27;;;10.07;;
15820;SDS011;8011;51.650;7.240;2022-12-18T13:55:05;17.80;;;10.93;;
15820;SDS011;8011;51.650;7.240;2022-12-18T13:57:39;14.37;;;9.83;;
15820;SDS011;8011;51.650;7.240;2022-12-18T14:00:40;13.30;;;9.73;;
15820;SDS011;8011;51.650;7.240;2022-12-18T14:02:58;13.13;;;9.13;;
15820;SDS011;8011;51.650;7.240;2022-12-18T14:05:26;15.80;;;10.40;;
15820;SDS011;8011;51.650;7.240;2022-12-18T14:08:15;14.63;;;10.23;;
15820;SDS011;8011;51.650;7.240;2022-12-18T14:10:45;15.03;;;10.33;;
15820;SDS011;8011;51.650;7.240;2022-12-18T14:13:15;16.87;;;10.37;;
15820;SDS011;8011;51.650;7.240;2022-12-18T14:15:56;14.37;;;9.97;;
15820;SDS011;8011;51.650;7.240;2022-12-18T14:18:26;14.33;;;9.90;;
15820;SDS011;8011;51.650;7.240;2022-12-18T14:21:04;15.47;;;10.80;;
15820;SDS011;8011;51.650;7.240;2022-12-18T14:23:39;15.00;;;10.87;;
15820;SDS011;8011;51.650;7.240;2022-12-18T14:26:26;12.40;;;9.43;;
15820;SDS011;8011;51.650;7.240;2022-12-18T14:28:55;15.20;;;9.93;;
15820;SDS011;8011;51.650;7.240;2022-12-18T14:31:22;12.10;;;8.77;;
15820;SDS011;8011;51.650;7.240;2022-12-18T14:33:53;13.00;;;8.83;;
15820;SDS011;8011;51.650;7.240;2022-12-18T14:36:26;15.47;;;10.47;;
15820;SDS011;8011;51.650;7.240;2022-12-18T14:38:55;14.67;;;8.90;;
15820;SDS011;8011;51.650;7.240;2022-12-18T14:41:22;12.90;;;8.90;;
15820;SDS011;8011;51.650;7.240;2022-12-18T14:43:52;13.80;;;9.07;;
15820;SDS011;8011;51.650;7.240;2022-12-18T14:48:56;20.33;;;11.87;;
15820;SDS011;8011;51.650;7.240;2022-12-18T14:51:23;23.60;;;12.50;;
15820;SDS011;8011;51.650;7.240;2022-12-18T14:56:29;68.20;;;24.87;;
15820;SDS011;8011;51.650;7.240;2022-12-18T15:01:32;19.83;;;11.50;;
15820;SDS011;8011;51.650;7.240;2022-12-18T15:04:02;17.17;;;10.13;;
15820;SDS011;8011;51.650;7.240;2022-12-18T15:06:38;15.73;;;10.20;;
15820;SDS011;8011;51.650;7.240;2022-12-18T15:09:20;12.57;;;9.27;;
15820;SDS011;8011;51.650;7.240;2022-12-18T15:11:55;14.40;;;9.53;;
15820;SDS011;8011;51.650;7.240;2022-12-18T15:14:39;14.97;;;10.70;;
15820;SDS011;8011;51.650;7.240;2022-12-18T15:17:17;14.73;;;10.40;;
15820;SDS011;8011;51.650;7.240;2022-12-18T15:19:45;15.03;;;10.63;;
15820;SDS011;8011;51.650;7.240;2022-12-18T15:22:22;18.03;;;13.47;;
15820;SDS011;8011;51.650;7.240;2022-12-18T15:24:55;16.87;;;11.23;;
15820;SDS011;8011;51.650;7.240;2022-12-18T15:32:35;17.03;;;12.00;;
15820;SDS011;8011;51.650;7.240;2022-12-18T15:35:13;28.67;;;20.87;;
15820;SDS011;8011;51.650;7.240;2022-12-18T15:37:47;21.67;;;15.10;;
15820;SDS011;8011;51.650;7.240;2022-12-18T15:43:08;23.80;;;15.33;;
15820;SDS011;8011;51.650;7.240;2022-12-18T15:45:53;29.50;;;17.50;;
15820;SDS011;8011;51.650;7.240;2022-12-18T15:48:20;29.53;;;17.57;;
15820;SDS011;8011;51.650;7.240;2022-12-18T15:50:47;28.13;;;16.27;;
15820;SDS011;8011;51.650;7.240;2022-12-18T15:53:13;32.47;;;16.57;;
15820;SDS011;8011;51.650;7.240;2022-12-18T15:55:39;30.00;;;17.90;;
15820;SDS011;8011;51.650;7.240;2022-12-18T15:58:23;32.63;;;18.77;;
15820;SDS011;8011;51.650;7.240;2022-12-18T16:00:49;31.87;;;19.47;;
15820;SDS011;8011;51.650;7.240;2022-12-18T16:03:14;35.17;;;21.83;;
15820;SDS011;8011;51.650;7.240;2022-12-18T16:05:40;30.00;;;17.93;;
15820;SDS011;8011;51.650;7.240;2022-12-18T16:08:08;37.87;;;27.50;;
15820;SDS011;8011;51.650;7.240;2022-12-18T16:10:34;29.27;;;19.77;;
15820;SDS011;8011;51.650;7.240;2022-12-18T16:13:00;26.90;;;19.00;;
15820;SDS011;8011;51.650;7.240;2022-12-18T16:15:28;24.73;;;17.27;;
15820;SDS011;8011;51.650;7.240;2022-12-18T16:17:54;23.43;;;15.83;;
15820;SDS011;8011;51.650;7.240;2022-12-18T16:20:20;37.87;;;23.90;;
15820;SDS011;8011;51.650;7.240;2022-12-18T16:22:47;25.17;;;14.97;;
15820;SDS011;8011;51.650;7.240;2022-12-18T16:25:18;26.63;;;17.33;;
15820;SDS011;8011;51.650;7.240;2022-12-18T16:27:49;23.53;;;15.27;;
15820;SDS011;8011;51.650;7.240;2022-12-18T16:30:16;23.83;;;16.17;;
15820;SDS011;8011;51.650;7.240;2022-12-18T16:32:44;23.00;;;15.77;;
15820;SDS011;8011;51.650;7.240;2022-12-18T16:35:10;20.43;;;16.27;;
15820;SDS011;8011;51.650;7.240;2022-12-18T16:37:37;17.27;;;10.53;;
15820;SDS011;8011;51.650;7.240;2022-12-18T16:40:07;17.10;;;9.20;;
15820;SDS011;8011;51.650;7.240;2022-12-18T16:42:35;13.60;;;9.40;;
15820;SDS011;8011;51.650;7.240;2022-12-18T16:45:02;14.27;;;10.67;;
15820;SDS011;8011;51.650;7.240;2022-12-18T16:47:29;16.43;;;10.47;;
15820;SDS011;8011;51.650;7.240;2022-12-18T16:49:55;16.73;;;9.97;;
15820;SDS011;8011;51.650;7.240;2022-12-18T16:52:20;14.83;;;9.73;;
15820;SDS011;8011;51.650;7.240;2022-12-18T16:54:46;12.10;;;9.13;;
15820;SDS011;8011;51.650;7.240;2022-12-18T16:57:13;15.67;;;9.97;;
15820;SDS011;8011;51.650;7.240;2022-12-18T16:59:40;14.47;;;9.83;;
15820;SDS011;8011;51.650;7.240;2022-12-18T17:02:08;14.87;;;10.43;;
15820;SDS011;8011;51.650;7.240;2022-12-18T17:04:46;19.27;;;11.30;;
15820;SDS011;8011;51.650;7.240;2022-12-18T17:07:15;21.80;;;15.20;;
15820;SDS011;8011;51.650;7.240;2022-12-18T17:09:41;24.83;;;15.97;;
15820;SDS011;8011;51.650;7.240;2022-12-18T17:12:07;18.23;;;11.97;;
15820;SDS011;8011;51.650;7.240;2022-12-18T17:14:33;15.07;;;10.93;;
15820;SDS011;8011;51.650;7.240;2022-12-18T17:17:00;21.60;;;13.63;;
15820;SDS011;8011;51.650;7.240;2022-12-18T17:19:26;19.50;;;14.37;;
15820;SDS011;8011;51.650;7.240;2022-12-18T17:21:52;27.67;;;19.93;;
15820;SDS011;8011;51.650;7.240;2022-12-18T17:24:18;25.00;;;18.27;;
15820;SDS011;8011;51.650;7.240;2022-12-18T17:26:44;21.63;;;16.63;;
15820;SDS011;8011;51.650;7.240;2022-12-18T17:29:15;22.40;;;17.10;;
15820;SDS011;8011;51.650;7.240;2022-12-18T17:31:43;26.03;;;20.40;;
15820;SDS011;8011;51.650;7.240;2022-12-18T17:34:10;32.73;;;22.90;;
15820;SDS011;8011;51.650;7.240;2022-12-18T17:36:36;384.57;;;154.20;;
15820;SDS011;8011;51.650;7.240;2022-12-18T17:39:03;177.50;;;105.70;;
15820;SDS011;8011;51.650;7.240;2022-12-18T17:41:33;36.23;;;25.53;;
15820;SDS011;8011;51.650;7.240;2022-12-18T17:44:00;15.97;;;12.20;;
15820;SDS011;8011;51.650;7.240;2022-12-18T17:46:29;16.17;;;11.13;;
15820;SDS011;8011;51.650;7.240;2022-12-18T17:48:59;17.03;;;11.70;;
15820;SDS011;8011;51.650;7.240;2022-12-18T17:51:26;21.80;;;12.80;;
15820;SDS011;8011;51.650;7.240;2022-12-18T17:53:52;20.03;;;12.43;;
15820;SDS011;8011;51.650;7.240;2022-12-18T17:56:20;21.13;;;13.23;;
15820;SDS011;8011;51.650;7.240;2022-12-18T17:58:47;18.27;;;12.07;;
15820;SDS011;8011;51.650;7.240;2022-12-18T18:01:23;16.93;;;11.23;;
15820;SDS011;8011;51.650;7.240;2022-12-18T18:03:49;18.70;;;11.93;;
15820;SDS011;8011;51.650;7.240;2022-12-18T18:06:16;21.23;;;12.00;;
15820;SDS011;8011;51.650;7.240;2022-12-18T18:08:42;19.73;;;12.23;;
15820;SDS011;8011;51.650;7.240;2022-12-18T18:11:10;23.30;;;12.80;;
15820;SDS011;8011;51.650;7.240;2022-12-18T18:13:57;20.33;;;13.33;;
15820;SDS011;8011;51.650;7.240;2022-12-18T18:16:40;22.13;;;14.70;;
15820;SDS011;8011;51.650;7.240;2022-12-18T18:19:11;23.27;;;13.73;;
15820;SDS011;8011;51.650;7.240;2022-12-18T18:21:39;24.00;;;13.57;;
15820;SDS011;8011;51.650;7.240;2022-12-18T18:24:06;18.27;;;13.47;;
15820;SDS011;8011;51.650;7.240;2022-12-18T18:26:33;20.90;;;13.83;;
15820;SDS011;8011;51.650;7.240;2022-12-18T18:29:01;18.60;;;12.67;;
15820;SDS011;8011;51.650;7.240;2022-12-18T18:31:28;22.60;;;12.93;;
15820;SDS011;8011;51.650;7.240;2022-12-18T18:33:54;20.27;;;15.07;;
15820;SDS011;8011;51.650;7.240;2022-12-18T18:36:21;23.43;;;14.50;;
15820;SDS011;8011;51.650;7.240;2022-12-18T18:38:48;19.07;;;13.30;;
15820;SDS011;8011;51.650;7.240;2022-12-18T18:41:14;20.93;;;13.43;;
15820;SDS011;8011;51.650;7.240;2022-12-18T18:43:41;18.70;;;13.27;;
15820;SDS011;8011;51.650;7.240;2022-12-18T18:46:08;23.83;;;14.07;;
15820;SDS011;8011;51.650;7.240;2022-12-18T18:48:35;21.47;;;13.67;;
15820;SDS011;8011;51.650;7.240;2022-12-18T18:51:03;19.40;;;12.60;;
15820;SDS011;8011;51.650;7.240;2022-12-18T18:53:30;19.30;;;13.57;;
15820;SDS011;8011;51.650;7.240;2022-12-18T18:56:00;22.67;;;13.60;;
15820;SDS011;8011;51.650;7.240;2022-12-18T18:58:26;24.77;;;13.27;;
15820;SDS011;8011;51.650;7.240;2022-12-18T19:00:54;19.70;;;11.93;;
15820;SDS011;8011;51.650;7.240;2022-12-18T19:03:21;20.50;;;12.30;;
15820;SDS011;8011;51.650;7.240;2022-12-18T19:05:49;20.13;;;13.07;;
15820;SDS011;8011;51.650;7.240;2022-12-18T19:08:19;22.83;;;14.20;;
15820;SDS011;8011;51.650;7.240;2022-12-18T19:10:46;20.90;;;12.60;;
15820;SDS011;8011;51.650;7.240;2022-12-18T19:13:12;25.00;;;13.83;;
15820;SDS011;8011;51.650;7.240;2022-12-18T19:15:49;19.70;;;11.93;;
15820;SDS011;8011;51.650;7.240;2022-12-18T19:18:16;23.13;;;13.73;;
15820;SDS011;8011;51.650;7.240;2022-12-18T19:20:42;19.87;;;13.27;;
15820;SDS011;8011;51.650;7.240;2022-12-18T19:23:08;19.33;;;13.53;;
15820;SDS011;8011;51.650;7.240;2022-12-18T19:25:37;19.63;;;13.50;;
15820;SDS011;8011;51.650;7.240;2022-12-18T19:28:04;23.33;;;15.63;;
15820;SDS011;8011;51.650;7.240;2022-12-18T19:30:30;24.00;;;15.73;;
15820;SDS011;8011;51.650;7.240;2022-12-18T19:32:56;26.77;;;17.27;;
15820;SDS011;8011;51.650;7.240;2022-12-18T19:35:22;22.37;;;12.37;;